createdAt,value
2018-02-06T00:00:14.424Z,93.80
2018-02-06T00:02:41.956Z,93.80
2018-02-06T00:05:09.547Z,94.00
2018-02-06T00:07:37.082Z,93.80
2018-02-06T00:10:04.619Z,93.50
2018-02-06T00:12:32.876Z,93.90
2018-02-06T00:15:00.425Z,93.70
2018-02-06T00:17:28.728Z,94.00
2018-02-06T00:19:56.300Z,93.90
2018-02-06T00:25:17.259Z,94.00
2018-02-06T00:27:45.379Z,94.10
2018-02-06T00:30:25.498Z,94.00
2018-02-06T00:41:08.075Z,93.90
2018-02-06T00:43:36.379Z,95.00
2018-02-06T00:46:03.915Z,95.00
2018-02-06T00:48:32.866Z,95.00
2018-02-06T00:51:00.403Z,94.90
2018-02-06T00:53:27.963Z,94.80
2018-02-06T00:55:55.527Z,94.70
2018-02-06T00:58:23.075Z,94.70
2018-02-06T01:00:50.633Z,94.80
2018-02-06T01:03:18.205Z,95.20
2018-02-06T01:05:45.749Z,95.10
2018-02-06T01:08:25.823Z,94.80
2018-02-06T01:15:49.279Z,94.80
2018-02-06T01:18:16.826Z,95.10
2018-02-06T01:20:44.415Z,95.40
2018-02-06T01:23:11.995Z,95.40
2018-02-06T01:25:39.579Z,95.20
2018-02-06T01:28:07.116Z,95.10
2018-02-06T01:30:35.006Z,95.20
2018-02-06T01:33:02.552Z,94.70
2018-02-06T01:35:30.086Z,94.70
2018-02-06T01:37:57.658Z,95.10
2018-02-06T01:40:25.202Z,95.30
2018-02-06T01:42:52.740Z,95.00
2018-02-06T01:45:21.070Z,94.90
2018-02-06T01:47:48.671Z,94.90
2018-02-06T01:50:16.504Z,94.60
2018-02-06T01:52:44.295Z,94.40
2018-02-06T01:55:11.891Z,94.50
2018-02-06T01:57:39.426Z,94.70
2018-02-06T02:00:07.020Z,94.70
2018-02-06T02:02:34.563Z,94.70
2018-02-06T02:05:02.868Z,94.30
2018-02-06T02:07:30.451Z,94.30
2018-02-06T02:09:57.995Z,94.30
2018-02-06T02:12:25.556Z,94.50
2018-02-06T02:14:53.430Z,94.60
2018-02-06T02:17:21.623Z,94.40
2018-02-06T02:19:49.196Z,94.60
2018-02-06T02:22:16.758Z,94.70
2018-02-06T02:24:44.341Z,94.60
2018-02-06T02:27:11.883Z,94.50
2018-02-06T02:29:39.471Z,94.60
2018-02-06T02:32:07.028Z,94.80
2018-02-06T02:34:34.563Z,94.60
2018-02-06T02:37:03.050Z,94.70
2018-02-06T02:39:30.595Z,94.70
2018-02-06T04:40:44.043Z,94.70
2018-02-06T04:43:11.592Z,94.60
2018-02-06T04:45:39.135Z,94.90
2018-02-06T04:48:07.203Z,95.00
2018-02-06T04:50:34.743Z,94.70
2018-02-06T04:53:02.288Z,94.80
2018-02-06T04:55:29.891Z,94.70
2018-02-06T04:57:57.484Z,94.80
2018-02-06T05:00:25.018Z,94.90
2018-02-06T05:02:52.609Z,94.90
2018-02-06T05:05:20.923Z,95.00
2018-02-06T05:07:48.471Z,95.00
2018-02-06T05:10:17.106Z,95.10
2018-02-06T05:12:44.650Z,95.00
2018-02-06T05:15:12.191Z,94.90
2018-02-06T05:17:39.763Z,94.90
2018-02-06T05:20:07.367Z,94.90
2018-02-06T05:22:35.911Z,94.90
2018-02-06T05:25:03.519Z,94.90
2018-02-06T05:27:31.141Z,95.20
2018-02-06T05:29:58.687Z,95.00
2018-02-06T05:32:27.077Z,95.00
2018-02-06T05:34:54.703Z,95.00
2018-02-06T05:37:22.247Z,94.90
2018-02-06T05:39:49.827Z,95.00
2018-02-06T05:42:17.383Z,95.00
2018-02-06T05:44:44.927Z,95.00
2018-02-06T05:47:12.543Z,94.90
2018-02-06T05:49:40.090Z,94.80
2018-02-06T05:52:07.631Z,94.60
2018-02-06T05:54:35.263Z,94.70
2018-02-06T05:57:02.804Z,94.60
2018-02-06T05:59:30.399Z,95.00
2018-02-06T06:01:57.987Z,94.90
2018-02-06T06:04:25.529Z,95.10
2018-02-06T06:06:53.080Z,94.90
2018-02-06T06:09:20.713Z,94.80
2018-02-06T06:11:49.071Z,94.80
2018-02-06T06:14:16.630Z,94.80
2018-02-06T06:16:44.528Z,95.10
2018-02-06T06:19:12.072Z,95.50
2018-02-06T06:21:39.934Z,95.70
2018-02-06T06:24:07.572Z,95.60
2018-02-06T06:26:35.114Z,95.90
2018-02-06T06:29:02.686Z,95.80
2018-02-06T06:31:30.287Z,95.70
2018-02-06T06:33:59.380Z,95.90
2018-02-06T06:36:26.931Z,95.80
2018-02-06T06:38:54.953Z,95.70
2018-02-06T06:41:22.496Z,95.50
2018-02-06T06:43:50.034Z,95.10
2018-02-06T06:46:18.374Z,95.40
2018-02-06T06:48:45.911Z,95.40
2018-02-06T06:51:15.524Z,95.20
2018-02-06T06:53:43.092Z,95.20
2018-02-06T06:56:10.642Z,95.10
2018-02-06T06:58:38.186Z,95.30
2018-02-06T07:01:06.203Z,95.30
2018-02-06T07:03:33.748Z,95.20
2018-02-06T07:06:01.292Z,95.10
2018-02-06T07:08:28.869Z,95.30
2018-02-06T07:10:56.419Z,95.50
2018-02-06T07:13:24.031Z,95.60
2018-02-06T07:15:51.651Z,95.60
2018-02-06T07:18:19.215Z,95.50
2018-02-06T07:20:46.771Z,95.40
2018-02-06T07:23:25.903Z,95.30
2018-02-06T07:32:28.939Z,95.30
2018-02-06T07:34:56.800Z,96.10
2018-02-06T07:37:24.334Z,96.30
2018-02-06T07:39:52.387Z,96.10
2018-02-06T07:42:19.951Z,95.70
2018-02-06T07:44:47.492Z,95.70
2018-02-06T07:47:16.527Z,95.10
2018-02-06T07:49:44.847Z,94.90
2018-02-06T07:52:12.391Z,94.90
2018-02-06T07:54:39.951Z,95.00
2018-02-06T07:57:07.495Z,95.10
2018-02-06T07:59:35.027Z,95.10
2018-02-06T08:02:03.853Z,94.30
2018-02-06T08:04:31.409Z,94.30
2018-02-06T08:06:58.957Z,94.40
2018-02-06T08:09:26.528Z,94.40
2018-02-06T08:11:54.103Z,94.50
2018-02-06T08:14:21.654Z,94.20
2018-02-06T08:16:49.247Z,94.10
2018-02-06T08:19:16.798Z,94.00
2018-02-06T08:21:44.339Z,93.70
2018-02-06T08:24:12.335Z,93.40
2018-02-06T08:26:39.866Z,93.10
2018-02-06T08:29:07.407Z,93.10
2018-02-06T08:31:34.975Z,93.10
2018-02-06T08:34:03.030Z,92.70
2018-02-06T08:36:30.583Z,92.60
2018-02-06T08:38:58.919Z,92.20
2018-02-06T08:41:26.463Z,92.20
2018-02-06T08:43:54.003Z,92.30
2018-02-06T08:46:22.210Z,92.50
2018-02-06T08:48:49.755Z,92.20
2018-02-06T08:51:17.303Z,91.80
2018-02-06T08:53:44.871Z,91.70
2018-02-06T08:56:14.091Z,90.70
2018-02-06T08:58:41.728Z,90.80
2018-02-06T09:01:09.296Z,91.00
2018-02-06T09:03:36.834Z,90.70
2018-02-06T09:06:04.371Z,90.50
2018-02-06T09:08:33.159Z,89.80
2018-02-06T09:11:00.703Z,89.80
2018-02-06T09:13:28.236Z,90.20
2018-02-06T09:15:56.112Z,90.00
2018-02-06T09:18:23.651Z,89.70
2018-02-06T09:20:51.182Z,89.00
2018-02-06T09:23:18.742Z,89.90
2018-02-06T09:25:46.282Z,90.00
2018-02-06T09:28:26.191Z,88.10
2018-02-06T09:33:37.494Z,82.80
2018-02-06T09:36:05.467Z,80.60
2018-02-06T09:38:33.030Z,77.70
2018-02-06T09:41:00.643Z,76.90
2018-02-06T09:43:28.180Z,78.90
2018-02-06T09:45:56.479Z,78.30
2018-02-06T09:48:24.595Z,78.30
2018-02-06T09:50:52.137Z,79.30
2018-02-06T09:53:19.737Z,80.20
2018-02-06T09:55:47.294Z,79.90
2018-02-06T09:58:17.268Z,77.60
2018-02-06T10:00:45.069Z,77.60
2018-02-06T10:03:12.627Z,77.40
2018-02-06T10:05:40.167Z,76.10
2018-02-06T10:08:07.699Z,74.50
2018-02-06T10:10:35.283Z,73.20
2018-02-06T10:13:02.831Z,73.20
2018-02-06T10:15:31.152Z,71.10
2018-02-06T10:17:58.744Z,71.10
2018-02-06T10:20:27.044Z,66.50
2018-02-06T10:22:54.575Z,66.30
2018-02-06T10:25:22.930Z,64.90
2018-02-06T10:27:50.646Z,64.80
2018-02-06T10:30:18.184Z,66.10
2018-02-06T10:32:46.975Z,64.20
2018-02-06T10:35:16.504Z,64.90
2018-02-06T10:37:44.274Z,64.90
2018-02-06T10:40:11.958Z,64.80
2018-02-06T10:42:39.524Z,65.50
2018-02-06T10:45:07.119Z,66.40
2018-02-06T10:47:34.716Z,67.30
2018-02-06T10:50:02.275Z,67.80
2018-02-06T10:52:29.815Z,70.20
2018-02-06T10:54:57.927Z,69.70
2018-02-06T10:57:25.479Z,70.30
2018-02-06T10:59:53.011Z,70.70
2018-02-06T11:02:20.566Z,70.90
2018-02-06T11:04:48.092Z,71.40
2018-02-06T11:07:16.467Z,72.60
2018-02-06T11:09:44.022Z,73.20
2018-02-06T11:12:11.551Z,73.40
2018-02-06T11:14:39.102Z,75.20
2018-02-06T11:17:07.256Z,76.40
2018-02-06T11:19:34.816Z,76.60
2018-02-06T11:22:02.355Z,76.70
2018-02-06T11:24:29.922Z,79.50
2018-02-06T11:26:58.219Z,80.10
2018-02-06T11:29:25.751Z,80.00
2018-02-06T11:31:54.075Z,80.50
2018-02-06T11:34:21.603Z,80.40
2018-02-06T11:36:49.908Z,80.70
2018-02-06T11:39:18.080Z,80.70
2018-02-06T11:41:45.619Z,80.40
2018-02-06T11:44:15.335Z,81.60
2018-02-06T11:46:42.891Z,81.60
2018-02-06T11:49:10.431Z,81.90
2018-02-06T11:51:37.963Z,83.80
2018-02-06T11:54:05.532Z,84.30
2018-02-06T11:56:33.075Z,85.50
2018-02-06T11:59:00.603Z,85.40
2018-02-06T12:01:28.523Z,85.90
2018-02-06T12:03:56.052Z,85.70
2018-02-06T12:06:23.586Z,86.60
2018-02-06T12:08:51.143Z,87.40
2018-02-06T12:11:18.679Z,88.00
2018-02-06T12:13:46.991Z,88.50
2018-02-06T12:16:16.327Z,89.00
2018-02-06T12:18:43.856Z,89.10
2018-02-06T12:21:11.388Z,89.50
2018-02-06T12:23:39.302Z,89.30
2018-02-06T12:26:06.835Z,89.50
2018-02-06T12:28:34.362Z,89.80
2018-02-06T12:31:02.676Z,90.10
2018-02-06T12:33:30.259Z,90.00
2018-02-06T12:35:57.871Z,90.30
2018-02-06T12:38:26.234Z,90.10
2018-02-06T12:40:54.243Z,90.10
2018-02-06T12:43:21.787Z,90.40
2018-02-06T12:45:50.771Z,90.10
2018-02-06T12:48:19.109Z,90.70
2018-02-06T12:50:46.671Z,90.30
2018-02-06T12:53:25.892Z,90.20
2018-02-06T13:00:18.527Z,90.70
2018-02-06T13:02:46.099Z,90.60
2018-02-06T13:05:21.792Z,91.20
2018-02-06T13:07:49.347Z,91.10
2018-02-06T13:10:16.903Z,91.30
2018-02-06T13:12:44.993Z,91.10
2018-02-06T13:15:12.828Z,90.60
2018-02-06T13:17:41.131Z,91.00
2018-02-06T13:20:09.660Z,91.00
2018-02-06T13:22:37.351Z,91.00
2018-02-06T13:25:06.144Z,90.50
2018-02-06T13:27:33.767Z,90.40
2018-02-06T13:30:01.312Z,90.20
2018-02-06T13:32:29.648Z,90.50
2018-02-06T13:34:57.220Z,90.40
2018-02-06T13:37:24.778Z,90.40
2018-02-06T13:39:52.355Z,90.20
2018-02-06T13:42:20.671Z,90.20
2018-02-06T15:20:00.353Z,82.70
2018-02-06T15:22:28.664Z,82.80
2018-02-06T15:24:56.211Z,82.80
2018-02-06T15:27:23.771Z,82.30
2018-02-06T15:29:51.319Z,82.70
2018-02-06T15:32:18.938Z,83.20
2018-02-06T15:34:46.546Z,83.00
2018-02-06T15:37:16.272Z,83.40
2018-02-06T15:39:43.807Z,83.40
2018-02-06T15:42:11.959Z,83.60
2018-02-06T15:44:39.495Z,83.40
2018-02-06T15:47:07.046Z,83.40
2018-02-06T15:49:35.920Z,84.00
2018-02-06T15:52:03.463Z,84.80
2018-02-06T15:54:31.003Z,85.20
2018-02-06T15:56:58.556Z,85.40
2018-02-06T15:59:26.086Z,86.70
2018-02-06T16:01:53.617Z,87.90
2018-02-06T16:04:21.779Z,88.60
2018-02-06T16:06:49.314Z,89.00
2018-02-06T16:09:16.855Z,89.20
2018-02-06T16:11:44.428Z,89.50
2018-02-06T16:14:12.876Z,90.10
2018-02-06T16:16:40.416Z,90.20
2018-02-06T16:19:08.507Z,90.80
2018-02-06T16:21:36.282Z,90.80
2018-02-06T16:24:03.823Z,91.10
2018-02-06T16:26:31.469Z,91.10
2018-02-06T16:28:59.004Z,91.30
2018-02-06T16:31:28.085Z,91.60
2018-02-06T16:33:55.676Z,91.60
2018-02-06T16:36:23.227Z,91.50
2018-02-06T16:38:50.776Z,91.30
2018-02-06T16:41:18.339Z,91.40
2018-02-06T16:43:45.873Z,91.30
2018-02-06T16:46:15.433Z,91.30
2018-02-06T16:48:43.048Z,91.30
2018-02-06T16:51:10.611Z,91.40
2018-02-06T16:53:38.168Z,91.40
2018-02-06T16:56:06.550Z,91.80
2018-02-06T16:58:34.075Z,91.80
2018-02-06T17:01:01.638Z,91.80
2018-02-06T17:03:29.512Z,91.90
2018-02-06T17:05:57.046Z,92.00
2018-02-06T17:08:24.594Z,92.20
2018-02-06T17:10:52.659Z,92.20
2018-02-06T17:13:21.127Z,92.20
2018-02-06T17:15:48.634Z,92.20
2018-02-06T17:18:17.364Z,92.30
2018-02-06T17:20:45.667Z,92.20
2018-02-06T17:23:19.471Z,92.20
2018-02-06T17:25:47.019Z,92.20
2018-02-06T17:28:16.459Z,92.30
2018-02-06T17:30:44.220Z,92.30
2018-02-06T17:33:12.048Z,92.50
2018-02-06T17:35:40.347Z,92.50
2018-02-06T17:38:07.939Z,92.80
2018-02-06T17:40:35.513Z,92.80
2018-02-06T17:43:03.069Z,92.60
2018-02-06T17:45:30.660Z,92.50
2018-02-06T17:47:58.965Z,92.20
2018-02-06T17:50:27.250Z,92.20
2018-02-06T17:52:55.286Z,92.40
2018-02-06T17:55:23.597Z,92.40
2018-02-06T17:57:51.136Z,92.30
2018-02-06T18:00:19.471Z,92.20
2018-02-06T18:02:47.405Z,92.20
2018-02-06T18:05:17.342Z,92.20
2018-02-06T18:07:44.923Z,92.20
2018-02-06T18:10:12.463Z,92.40
2018-02-06T18:12:40.004Z,92.40
2018-02-06T18:15:07.664Z,92.40
2018-02-06T18:17:35.204Z,92.40
2018-02-06T18:20:02.793Z,92.70
2018-02-06T18:22:31.139Z,92.70
2018-02-06T18:24:58.908Z,92.70
2018-02-06T18:27:26.448Z,92.60
2018-02-06T18:29:54.781Z,92.40
2018-02-06T18:32:22.316Z,92.40
2018-02-06T18:34:49.856Z,92.90
2018-02-06T18:37:17.506Z,92.70
2018-02-06T18:39:45.017Z,93.10
2018-02-06T18:42:14.317Z,93.50
2018-02-06T18:44:41.885Z,93.50
2018-02-06T18:47:09.424Z,93.60
2018-02-06T18:49:37.019Z,93.40
2018-02-06T18:52:04.585Z,93.30
2018-02-06T18:54:32.126Z,93.50
2018-02-06T18:56:59.663Z,93.60
2018-02-06T18:59:27.247Z,93.90
2018-02-06T19:01:54.787Z,94.10
2018-02-06T19:04:23.140Z,94.30
2018-02-06T19:06:50.704Z,94.30
2018-02-06T19:09:19.188Z,94.40
2018-02-06T19:11:46.728Z,94.50
2018-02-06T19:14:16.319Z,94.40
2018-02-06T19:16:43.888Z,94.40
2018-02-06T19:19:11.428Z,94.40
2018-02-06T19:21:39.073Z,94.50
2018-02-06T19:24:06.613Z,94.60
2018-02-06T19:26:34.584Z,94.70
2018-02-06T19:29:02.156Z,94.80
2018-02-06T19:31:29.704Z,94.90
2018-02-06T19:33:57.299Z,95.00
2018-02-06T19:36:24.934Z,95.20
2018-02-06T19:38:52.491Z,95.20
2018-02-06T19:41:20.038Z,95.30
2018-02-06T19:43:48.044Z,95.20
2018-02-06T19:46:17.223Z,95.20
2018-02-06T19:48:44.760Z,95.10
2018-02-06T19:51:12.328Z,95.20
2018-02-06T19:53:39.947Z,95.30
2018-02-06T19:56:07.527Z,95.40
2018-02-06T19:58:36.060Z,95.70
2018-02-06T20:01:03.675Z,95.60
2018-02-06T20:03:32.035Z,95.90
2018-02-06T20:06:00.696Z,96.00
2018-02-06T20:08:28.298Z,96.00
2018-02-06T20:10:55.851Z,96.10
2018-02-06T20:13:24.257Z,96.20
2018-02-06T20:15:51.812Z,96.20
2018-02-06T20:18:19.617Z,96.40
2018-02-06T20:20:47.244Z,96.40
2018-02-06T20:23:17.226Z,96.60
2018-02-06T20:25:45.537Z,96.90
2018-02-06T20:28:15.479Z,96.60
2018-02-06T20:30:43.079Z,96.60
2018-02-06T20:33:11.393Z,96.90
2018-02-06T20:35:38.960Z,96.90
2018-02-06T20:38:06.508Z,97.00
2018-02-06T20:40:34.060Z,97.10
2018-02-06T20:43:01.628Z,97.20
2018-02-06T20:45:29.221Z,97.10
2018-02-06T20:47:56.777Z,97.10
2018-02-06T20:50:24.855Z,97.30
2018-02-06T20:52:52.396Z,97.30
2018-02-06T20:55:19.936Z,97.30
2018-02-06T20:57:47.514Z,97.40
2018-02-06T21:00:17.424Z,97.50
2018-02-06T21:02:45.028Z,97.10
2018-02-06T21:05:12.646Z,97.20
2018-02-06T21:07:40.184Z,97.10
2018-02-06T21:10:07.798Z,97.30
2018-02-06T21:12:35.859Z,97.50
2018-02-06T21:15:03.404Z,97.50
2018-02-06T21:17:30.957Z,97.30
2018-02-06T21:19:58.602Z,97.40
2018-02-06T21:22:26.907Z,97.60
2018-02-06T21:24:54.490Z,97.60
2018-02-06T21:27:22.060Z,97.40
2018-02-06T21:29:50.672Z,97.20
2018-02-06T21:32:18.987Z,97.60
2018-02-06T21:34:46.607Z,97.50
2018-02-06T21:37:16.356Z,97.60
2018-02-06T21:39:43.950Z,97.60
2018-02-06T21:42:11.574Z,97.60
2018-02-06T21:44:39.114Z,97.60
2018-02-06T21:47:06.664Z,97.60
2018-02-06T21:49:36.499Z,97.70
2018-02-06T21:52:04.040Z,97.90
2018-02-06T21:54:31.592Z,98.00
2018-02-06T21:56:59.997Z,98.00
2018-02-06T21:59:27.569Z,98.00
2018-02-06T22:01:55.135Z,98.00
2018-02-06T22:04:22.699Z,98.00
2018-02-06T22:06:50.244Z,97.90
2018-02-06T22:09:17.839Z,97.90
2018-02-06T22:11:45.778Z,98.00
2018-02-06T22:14:15.375Z,97.90
2018-02-06T22:16:42.911Z,97.90
2018-02-06T22:19:11.313Z,97.90
2018-02-06T22:21:38.847Z,97.90
2018-02-06T22:24:07.160Z,98.00
2018-02-06T22:26:34.720Z,97.90
2018-02-06T22:29:02.259Z,97.90
2018-02-06T22:31:34.360Z,97.90
2018-02-06T22:34:01.952Z,97.90
2018-02-06T22:36:29.501Z,97.90
2018-02-06T22:38:59.195Z,97.80
2018-02-06T22:41:26.999Z,98.00
2018-02-06T22:43:54.554Z,98.10
2018-02-06T22:46:22.919Z,98.20
2018-02-06T22:48:50.490Z,98.50
2018-02-06T22:51:18.051Z,98.30
2018-02-06T22:53:45.593Z,98.40
2018-02-06T22:56:15.400Z,98.30
2018-02-06T22:58:42.940Z,98.30
2018-02-06T23:01:10.815Z,98.20
2018-02-06T23:03:38.432Z,98.20
2018-02-06T23:06:05.971Z,98.00
2018-02-06T23:08:33.520Z,98.20
2018-02-06T23:11:01.821Z,98.10
2018-02-06T23:13:30.156Z,98.00
2018-02-06T23:15:57.702Z,98.00
2018-02-06T23:18:25.279Z,98.00
2018-02-06T23:20:52.838Z,97.90
2018-02-06T23:23:20.375Z,97.80
2018-02-06T23:25:48.371Z,98.00
2018-02-06T23:28:17.443Z,97.90
2018-02-06T23:30:45.006Z,97.90
2018-02-06T23:33:14.419Z,97.60
2018-02-06T23:35:41.968Z,97.90
2018-02-06T23:38:09.519Z,97.60
2018-02-06T23:40:37.419Z,97.60
2018-02-06T23:43:04.955Z,97.70
2018-02-06T23:45:32.496Z,97.60
2018-02-06T23:48:00.250Z,97.60
2018-02-06T23:50:27.791Z,97.60
2018-02-06T23:52:55.331Z,97.70
2018-02-06T23:55:22.896Z,97.80
2018-02-06T23:57:50.436Z,97.60
